• Join FlightAware (Why Join?)
  • Login
  • US Flag 
01:32PM EDT


 

Airport Tracker/Info


-or-


 

Live Flight TrackerFlight Track Log ✈ DAL1430 ✈ 06-May-2013 ✈ KCVG - KTPA

Flight Track Log - Related Links

Times and Time Zones

All times are in EDT time to prevent confusion due to time zone crossing. See the DAL1430 flight status page for this flight to view local times or setup timezone preferences in your user account.

Time Position Orientation Groundspeed Altitude Reporting Facility
EDT Latitude Longitude Course Direction KTS MPH feet Rate Location/Type
03:15PM 39.1167 -84.7000 183° South 234 269 3,700  Level Cincinnati TRACON
03:17PM 38.5787 -84.6891 199° South  Level FlightAware Approximate
03:17PM 39.0522 -84.8200 235° Southwest 290 334 11,300  Level Indianapolis Center
03:18PM 38.4675 -84.7495 208° Southwest  Level FlightAware Approximate
03:19PM 38.8844 -84.7804 175° South  Level Estimated
03:19PM 38.3465 -84.7565 183° South  Level FlightAware Approximate
03:20PM 38.2255 -84.7640 183° South  Level FlightAware Approximate
03:20PM 38.7431 -84.7825 175° South 373 429 21,100  Level Indianapolis Center
03:21PM 38.6422 -84.7697 174° South 385 443 23,400 2,100 Climbing Indianapolis Center
03:23PM 38.4871 -84.7609 174° South  Level FlightAware Approximate
03:24PM 38.2700 -84.7319 174° South 430 495 30,000  Level Indianapolis Center
03:26PM 38.1233 -84.7167 180° South  Level FlightAware Approximate
03:26PM 38.0286 -84.7036 180° South 433 498 31,200  Level Indianapolis Center
03:30PM 37.6950 -84.6683 174° South  Level FlightAware Approximate
03:30PM 37.5490 -84.6582 175° South  Level FlightAware Approximate
03:31PM 37.3908 -84.7200 176° South 453 521 38,000  Level Indianapolis Center
03:33PM 37.2664 -84.7439 189° South 453 521 38,000  Level Indianapolis Center
03:34PM 37.1197 -84.7658 187° South 455 524 38,000  Level Indianapolis Center
03:35PM 36.9894 -84.7511 175° South 456 525 38,000  Level Indianapolis Center
03:36PM 36.8617 -84.7383 175° South 458 527 38,000  Level Indianapolis Center
03:37PM 36.7603 -84.5681 176° South  Level FlightAware Approximate
03:37PM 36.7333 -84.7269 176° South 460 529 38,000  Level Indianapolis Center
03:38PM 36.6069 -84.7147 176° South 457 526 38,000 300 Level Indianapolis Center
03:40PM 36.3583 -84.6906 176° South 445 512 39,000 300 Climbing Indianapolis Center
03:41PM 36.2067 -84.6750 175° South 451 519 39,000  Level Indianapolis Center
03:42PM 36.0792 -84.6633 176° South 454 522 39,000  Level Indianapolis Center
03:43PM 35.9192 -84.6489 176° South 461 531 39,000  Level Atlanta Center
03:44PM 35.7878 -84.6353 175° South 461 531 39,000  Level Atlanta Center
03:45PM 35.6606 -84.6242 176° South 461 531 39,000  Level Atlanta Center
03:46PM 35.5314 -84.6131 176° South 461 531 39,000  Level Atlanta Center
03:49PM 35.1475 -84.5772 176° South 461 531 39,000  Level Atlanta Center
03:50PM 35.0203 -84.5664 176° South 461 531 39,000  Level Atlanta Center
03:52PM 34.7678 -84.5419 175° South 461 531 39,000  Level Atlanta Center
03:54PM 34.5974 -84.5247 175° South  Level FlightAware Approximate
03:54PM 34.5300 -84.5178 175° South 461 531 39,000  Level Atlanta Center
03:55PM 34.4008 -84.5044 175° South 461 531 39,000  Level Atlanta Center
03:56PM 34.2714 -84.4939 176° South 461 531 39,000  Level Atlanta Center
03:57PM 34.1294 -84.4831 176° South 461 531 39,000  Level Atlanta Center
03:58PM 33.9981 -84.4697 175° South 468 539 39,000  Level Atlanta Center
04:00PM 33.8276 -84.4534 175° South  Level FlightAware Approximate
04:00PM 33.7456 -84.4486 175° South 461 531 39,000  Level Atlanta Center
04:01PM 33.6161 -84.4378 176° South 461 531 39,000  Level Atlanta Center
04:03PM 33.4434 -84.4315 178° South  Level FlightAware Approximate
04:03PM 33.3761 -84.4319 178° South 455 524 39,000  Level Atlanta Center
04:04PM 33.2531 -84.4314 180° South 450 518 39,000  Level Atlanta Center
04:05PM 33.1258 -84.4258 178° South 450 518 39,000  Level Atlanta Center
04:06PM 32.9900 -84.4253 180° South 450 518 39,000  Level Atlanta Center
04:07PM 32.8628 -84.4222 179° South 457 526 39,000  Level Atlanta Center
04:08PM 32.7519 -84.4217 180° South 457 526 39,000  Level Atlanta Center
04:10PM 32.5793 -84.4157 178° South  Level FlightAware Approximate
04:10PM 32.4953 -84.4131 178° South 457 526 39,000  Level Atlanta Center
04:11PM 32.3661 -84.4053 177° South 462 532 39,000 -660 Level Atlanta Center
04:15PM 32.1486 -84.3557 170° South  Level FlightAware Approximate
04:22PM 31.3723 -84.1938 170° South  Level FlightAware Approximate
04:23PM 31.2613 -84.1715 170° South  Level FlightAware Approximate
04:24PM 31.1503 -84.1492 170° South  Level FlightAware Approximate
04:25PM 31.0393 -84.1269 170° South  Level FlightAware Approximate
04:26PM 30.9283 -84.1047 170° South  Level FlightAware Approximate
04:27PM 30.8172 -84.0826 170° South  Level FlightAware Approximate
04:28PM 30.7062 -84.0605 170° South  Level FlightAware Approximate
04:29PM 30.5952 -84.0384 170° South  Level FlightAware Approximate
04:30PM 30.4842 -84.0164 170° South  Level FlightAware Approximate
04:31PM 30.3732 -83.9945 170° South  Level FlightAware Approximate
04:32PM 30.2626 -83.9698 168° South  Level FlightAware Approximate
04:33PM 30.1515 -83.9487 171° South  Level FlightAware Approximate
04:34PM 30.0402 -83.9285 171° South  Level FlightAware Approximate
04:35PM 29.9289 -83.9083 171° South  Level FlightAware Approximate
04:36PM 29.8184 -83.8838 168° South  Level FlightAware Approximate
04:37PM 29.7202 -83.8204 150° Southeast  Level FlightAware Approximate
04:38PM 29.6221 -83.7567 151° Southeast  Level FlightAware Approximate
04:39PM 29.5240 -83.6930 151° Southeast  Level FlightAware Approximate
04:40PM 29.4229 -83.6365 156° South  Level FlightAware Approximate
04:41PM 29.3237 -83.5752 151° Southeast  Level FlightAware Approximate
04:41PM 28.6167 -83.1333 151° Southeast 439 505 18,600  Level Tampa TRACON
04:42PM 29.2276 -83.5082 147° Southeast  Level FlightAware Approximate
04:43PM 29.1268 -83.4512 150° Southeast  Level FlightAware Approximate
04:43PM 28.4926 -83.0489 152° Southeast  Level FlightAware Approximate
04:43PM 28.4167 -83.0000 152° Southeast 408 470 13,100  Level Tampa TRACON
04:44PM 29.0295 -83.3863 150° Southeast  Level FlightAware Approximate
04:44PM 28.3333 -82.9500 152° Southeast 379 436 11,500  Level Tampa TRACON
04:45PM 28.9322 -83.3214 150° Southeast  Level FlightAware Approximate
04:46PM 28.8338 -83.2589 151° Southeast  Level FlightAware Approximate
04:46PM 28.2667 -82.8262 90° East  Level FlightAware Approximate
04:47PM 28.7348 -83.1975 151° Southeast  Level FlightAware Approximate
04:47PM 28.1167 -82.7500 161° South 309 356 8,800  Level Tampa TRACON
04:49PM 28.0309 -82.6182 126° Southeast  Level Estimated
04:51PM 27.8500 -82.6167 North 236 272 3,000  Level Tampa TRACON
04:52PM 27.8333 -82.5667 111° Southeast 212 244 2,600 -420 Descending Tampa TRACON
04:53PM 27.9755 -82.5332 161° South  Level Estimated
04:56PM 27.9755 -82.5332 126° Southeast  Level Estimated
04:57PM 27.9755 -82.5332 North  Level Estimated